Terminal Aerodrome Forecast
Issued by NWS

Home | Current Version | Previous Version | Graphics & Text | Print | Product List | Glossary On
Versions: 1 2 3 4 5 6 7 8 9 10 11 12 13 14 15 16 17 18 19 20
093
FTUS43 KBIS 141905 AAA
TAFMOT
TAF AMD
KMOT 141905Z 1419/1518 28014KT P6SM OVC050
     FM150000 28012KT P6SM OVC050
     FM150600 24008KT P6SM OVC050=

USA.gov is the U.S. government's official web portal to all federal, state and local government web resources and services.